Time;durP1;ratioP1;P1;durP2;ratioP2;P2;SDS_P1;SDS_P2;PMS_P1;PMS_P2;Temp;Humidity;BMP_temperature;BMP_pressure;BME280_temperature;BME280_humidity;BME280_pressure;Samples;Min_cycle;Max_cycle;Signal;HPM_P1;HPM_P2
2022/10/14 00:02:22;;;;;;;66.57;47.25;;;12.50;99.90;;;;;;4934903;28;20490;-88
2022/10/14 00:04:48;;;;;;;71.50;50.45;;;12.50;99.90;;;;;;4931211;28;20038;-89
2022/10/14 00:07:13;;;;;;;63.38;47.63;;;12.50;99.90;;;;;;4934479;28;20053;-89
2022/10/14 00:09:41;;;;;;;71.43;51.30;;;12.50;99.90;;;;;;4932049;28;20038;-89
2022/10/14 00:12:06;;;;;;;74.07;51.22;;;12.50;99.90;;;;;;4935516;28;20038;-89
2022/10/14 00:14:32;;;;;;;61.92;45.20;;;12.50;99.90;;;;;;4946905;28;20512;-88
2022/10/14 00:16:58;;;;;;;78.25;50.72;;;12.50;99.90;;;;;;4933273;28;20054;-88
2022/10/14 00:19:23;;;;;;;71.55;49.13;;;12.50;99.90;;;;;;4933453;28;20453;-89
2022/10/14 00:21:49;;;;;;;64.60;45.38;;;12.50;99.90;;;;;;4964654;28;20084;-88
2022/10/14 00:24:16;;;;;;;83.72;50.15;;;12.50;99.90;;;;;;4952363;28;20049;-89
2022/10/14 00:26:42;;;;;;;63.10;46.92;;;12.50;99.90;;;;;;4983860;28;20046;-89
2022/10/14 00:29:12;;;;;;;70.90;49.85;;;12.50;99.90;;;;;;4949235;28;20033;-88
2022/10/14 00:31:38;;;;;;;67.20;48.15;;;12.50;99.90;;;;;;4963366;28;20502;-88
2022/10/14 00:34:04;;;;;;;67.45;46.15;;;12.50;99.90;;;;;;4955779;28;20049;-88
2022/10/14 00:36:30;;;;;;;60.90;45.72;;;12.40;99.90;;;;;;4950140;28;20050;-89
2022/10/14 00:38:56;;;;;;;64.45;47.63;;;12.40;99.90;;;;;;4950992;28;20117;-89
2022/10/14 00:41:28;;;;;;;69.25;48.28;;;12.40;99.90;;;;;;4981290;28;20121;-88
2022/10/14 00:44:02;;;;;;;71.38;48.10;;;12.40;99.90;;;;;;4962937;28;20034;-88
2022/10/14 00:46:33;;;;;;;66.47;46.92;;;12.40;99.90;;;;;;4978136;28;20038;-89
2022/10/14 00:49:31;;;;;;;64.55;45.90;;;12.40;99.90;;;;;;4983060;28;20042;-89
2022/10/14 00:52:03;;;;;;;125.10;56.78;;;12.40;99.90;;;;;;4951268;28;20058;-88
2022/10/14 00:54:36;;;;;;;71.18;48.67;;;12.40;99.90;;;;;;4973403;28;20037;-88
2022/10/14 00:57:02;;;;;;;72.45;47.13;;;12.40;99.90;;;;;;4964729;28;20072;-88
2022/10/14 00:59:29;;;;;;;63.95;46.47;;;12.40;99.90;;;;;;4948588;28;20053;-88
2022/10/14 01:01:55;;;;;;;66.95;46.55;;;12.40;99.90;;;;;;4951533;28;20042;-89
2022/10/14 01:04:21;;;;;;;64.07;45.05;;;12.30;99.90;;;;;;4954159;28;20520;-89
2022/10/14 01:07:04;;;;;;;72.55;47.47;;;12.40;99.90;;;;;;4964067;28;20043;-89
2022/10/14 01:09:58;;;;;;;67.50;44.67;;;12.30;99.90;;;;;;4965405;28;20061;-88
2022/10/14 01:12:35;;;;;;;105.82;51.92;;;12.30;99.90;;;;;;4969792;28;20520;-88
2022/10/14 01:15:18;;;;;;;73.30;47.65;;;12.30;99.90;;;;;;4967379;28;20054;-89
2022/10/14 01:18:00;;;;;;;58.50;42.33;;;12.30;99.90;;;;;;4984391;28;20075;-88
2022/10/14 01:20:54;;;;;;;61.42;42.95;;;12.30;99.90;;;;;;4961555;28;20034;-89
2022/10/14 01:23:49;;;;;;;63.13;43.38;;;12.20;99.90;;;;;;4962256;28;20046;-88
2022/10/14 01:26:27;;;;;;;60.78;42.70;;;12.20;99.90;;;;;;4953040;28;20049;-89
2022/10/14 01:28:52;;;;;;;57.95;41.25;;;12.10;99.90;;;;;;4961244;28;20038;-88
2022/10/14 01:31:22;;;;;;;95.93;47.63;;;12.10;99.90;;;;;;4965470;28;20486;-88
2022/10/14 01:33:54;;;;;;;59.53;41.20;;;12.10;99.90;;;;;;4969676;28;20196;-89
2022/10/14 01:36:29;;;;;;;64.28;41.55;;;12.10;99.90;;;;;;4968646;28;20397;-88
2022/10/14 01:39:01;;;;;;;68.13;41.50;;;12.10;99.90;;;;;;4970341;28;20038;-88
2022/10/14 01:41:31;;;;;;;74.50;43.40;;;12.00;99.90;;;;;;4966463;28;20052;-88
2022/10/14 01:44:00;;;;;;;59.35;37.95;;;12.00;99.90;;;;;;4984882;28;20045;-88
2022/10/14 01:46:26;;;;;;;55.10;36.22;;;11.90;99.90;;;;;;4965782;28;20045;-88
2022/10/14 01:49:00;;;;;;;53.42;36.50;;;12.00;99.90;;;;;;4962904;28;20035;-88
2022/10/14 01:51:51;;;;;;;48.00;33.47;;;12.00;99.90;;;;;;4964762;28;20053;-88
2022/10/14 01:54:26;;;;;;;54.85;36.30;;;11.90;99.90;;;;;;4967365;28;20046;-88
2022/10/14 01:56:55;;;;;;;54.50;36.10;;;11.90;99.90;;;;;;4966643;28;20045;-88
2022/10/14 01:59:23;;;;;;;72.88;36.05;;;11.90;99.90;;;;;;4970311;28;20038;-88
2022/10/14 02:01:49;;;;;;;89.82;34.03;;;11.90;99.90;;;;;;4961487;28;20114;-88
2022/10/14 02:04:23;;;;;;;96.35;32.05;;;11.90;99.90;;;;;;4951252;28;20047;-88
2022/10/14 02:07:09;;;;;;;88.43;32.20;;;11.90;99.90;;;;;;4963834;28;20038;-88
2022/10/14 02:09:59;;;;;;;56.13;30.85;;;11.80;99.90;;;;;;4968116;28;20043;-88
2022/10/14 02:12:59;;;;;;;52.72;31.75;;;11.80;99.90;;;;;;4971029;28;20057;-89
2022/10/14 02:15:29;;;;;;;70.70;32.35;;;11.80;99.90;;;;;;4963394;28;20089;-88
2022/10/14 02:18:18;;;;;;;68.85;31.42;;;11.70;99.90;;;;;;4969064;28;20034;-88
2022/10/14 02:21:19;;;;;;;67.63;29.50;;;11.70;99.90;;;;;;4988292;28;20038;-89
2022/10/14 02:24:20;;;;;;;75.25;30.10;;;11.70;99.90;;;;;;4963616;28;20046;-88
2022/10/14 02:26:48;;;;;;;66.60;29.33;;;11.70;99.90;;;;;;4939054;28;20049;-88
2022/10/14 02:29:16;;;;;;;77.72;29.25;;;11.60;99.90;;;;;;4973060;28;20473;-88
2022/10/14 02:31:44;;;;;;;51.83;29.00;;;11.70;99.90;;;;;;4971793;28;20038;-88
2022/10/14 02:34:13;;;;;;;81.55;30.17;;;11.60;99.90;;;;;;4976330;28;20185;-89
2022/10/14 02:36:40;;;;;;;557.53;51.55;;;11.60;99.90;;;;;;4969338;28;20045;-89
2022/10/14 02:39:09;;;;;;;279.30;39.33;;;11.60;99.90;;;;;;4964401;28;20034;-89
2022/10/14 02:41:36;;;;;;;66.28;29.95;;;11.50;99.90;;;;;;4957242;28;20138;-88
2022/10/14 02:44:05;;;;;;;98.30;31.20;;;11.60;99.90;;;;;;4953077;28;20298;-88
2022/10/14 02:46:32;;;;;;;52.42;26.75;;;11.50;99.90;;;;;;4967573;28;20532;-88
2022/10/14 02:48:58;;;;;;;121.32;25.50;;;11.50;99.90;;;;;;4966173;28;20046;-88
2022/10/14 02:51:23;;;;;;;45.70;25.10;;;11.50;99.90;;;;;;4936124;28;20081;-88
2022/10/14 02:53:49;;;;;;;64.13;23.65;;;11.40;99.90;;;;;;4954512;28;20493;-89
2022/10/14 02:56:16;;;;;;;67.40;23.98;;;11.40;99.90;;;;;;4936178;28;20049;-88
2022/10/14 02:58:41;;;;;;;76.38;24.17;;;11.40;99.90;;;;;;4972188;28;20042;-89
2022/10/14 03:01:08;;;;;;;65.53;23.00;;;11.40;99.90;;;;;;4934418;28;20093;-88
2022/10/14 03:03:33;;;;;;;45.20;22.08;;;11.40;99.90;;;;;;4971913;28;20048;-88
2022/10/14 03:05:59;;;;;;;55.83;24.92;;;11.40;99.90;;;;;;4951709;28;20124;-88
2022/10/14 03:08:25;;;;;;;42.70;22.50;;;11.30;99.90;;;;;;4969506;28;20034;-89
2022/10/14 03:10:50;;;;;;;67.90;23.98;;;11.30;99.90;;;;;;4965695;28;20038;-88
2022/10/14 03:13:16;;;;;;;34.28;22.52;;;11.40;99.90;;;;;;4934214;28;20042;-88
2022/10/14 03:15:42;;;;;;;119.38;24.83;;;11.30;99.90;;;;;;4966970;28;20054;-88
2022/10/14 03:18:08;;;;;;;69.05;22.73;;;11.30;99.90;;;;;;4950202;28;20096;-88
2022/10/14 03:20:33;;;;;;;141.23;23.13;;;11.30;99.90;;;;;;4964621;28;20137;-88
2022/10/14 03:22:59;;;;;;;88.22;21.00;;;11.30;99.90;;;;;;4936019;28;20080;-88
2022/10/14 03:25:25;;;;;;;58.88;20.83;;;11.30;99.90;;;;;;4931514;28;20077;-89
2022/10/14 03:27:50;;;;;;;46.75;20.02;;;11.20;99.90;;;;;;4965489;28;20038;-88
2022/10/14 03:30:16;;;;;;;190.57;23.35;;;11.20;99.90;;;;;;4941869;28;20097;-88
2022/10/14 03:32:42;;;;;;;184.25;24.85;;;11.20;99.90;;;;;;4962204;28;20045;-89
2022/10/14 03:35:09;;;;;;;241.90;25.17;;;11.20;99.90;;;;;;4932043;28;20458;-88
2022/10/14 03:37:34;;;;;;;39.25;20.70;;;11.20;99.90;;;;;;4947828;28;20043;-88
2022/10/14 03:40:00;;;;;;;116.32;20.77;;;11.20;99.90;;;;;;4944376;28;20042;-88
2022/10/14 03:42:26;;;;;;;84.55;17.20;;;11.20;99.90;;;;;;4965717;28;20035;-89
2022/10/14 03:44:51;;;;;;;234.23;25.50;;;11.20;99.90;;;;;;4964353;28;20039;-88
2022/10/14 03:47:17;;;;;;;318.45;28.00;;;11.20;99.90;;;;;;4983642;28;20045;-88
2022/10/14 03:49:43;;;;;;;43.03;18.98;;;11.20;99.90;;;;;;4963284;28;20039;-88
2022/10/14 03:52:09;;;;;;;113.68;22.98;;;11.10;99.90;;;;;;4936713;28;20624;-89
2022/10/14 03:54:35;;;;;;;155.10;26.23;;;11.10;99.90;;;;;;4948830;28;20049;-88
2022/10/14 03:57:01;;;;;;;139.48;26.00;;;11.20;99.90;;;;;;4949859;28;20114;-88
2022/10/14 03:59:26;;;;;;;169.88;30.33;;;11.10;99.90;;;;;;4934716;28;20148;-88
2022/10/14 04:01:52;;;;;;;92.18;27.92;;;11.20;99.90;;;;;;4946274;28;20039;-88
2022/10/14 04:04:18;;;;;;;120.22;31.27;;;11.20;99.90;;;;;;4963367;28;20754;-89
2022/10/14 04:06:43;;;;;;;92.93;31.25;;;11.20;99.90;;;;;;4948551;28;20033;-88
2022/10/14 04:09:09;;;;;;;59.22;28.58;;;11.20;99.90;;;;;;4964828;28;20043;-88
2022/10/14 04:11:35;;;;;;;69.80;30.55;;;11.20;99.90;;;;;;4929883;28;20043;-88
2022/10/14 04:14:00;;;;;;;81.00;32.38;;;11.20;99.90;;;;;;4929498;28;20035;-89
2022/10/14 04:16:26;;;;;;;128.80;37.63;;;11.20;99.90;;;;;;4937462;28;20105;-88
2022/10/14 04:18:56;;;;;;;110.38;36.80;;;11.20;99.90;;;;;;4951701;28;20397;-88
2022/10/14 04:21:22;;;;;;;69.07;32.20;;;11.30;99.90;;;;;;4962221;28;20085;-88
2022/10/14 04:23:49;;;;;;;86.55;34.53;;;11.20;99.90;;;;;;4950526;28;20081;-88
2022/10/14 04:26:14;;;;;;;78.88;32.30;;;11.20;99.90;;;;;;4932870;28;20105;-88
2022/10/14 04:28:40;;;;;;;80.38;34.20;;;11.20;99.90;;;;;;4965587;28;20068;-88
2022/10/14 04:31:06;;;;;;;169.35;42.38;;;11.30;99.90;;;;;;4931926;28;20035;-88
2022/10/14 04:33:31;;;;;;;86.20;37.38;;;11.30;99.90;;;;;;4933751;28;20521;-88
2022/10/14 04:35:58;;;;;;;94.65;36.45;;;11.30;99.90;;;;;;4933444;28;20034;-88
2022/10/14 04:38:24;;;;;;;143.65;42.75;;;11.30;99.90;;;;;;4972639;28;20031;-88
2022/10/14 04:40:50;;;;;;;70.57;33.60;;;11.30;99.90;;;;;;4965921;28;20069;-88
2022/10/14 04:43:16;;;;;;;85.28;38.78;;;11.30;99.90;;;;;;4962075;28;20081;-89
2022/10/14 04:45:41;;;;;;;171.30;45.13;;;11.30;99.90;;;;;;4946556;28;20050;-88
2022/10/14 04:48:07;;;;;;;105.97;39.65;;;11.30;99.90;;;;;;4928790;28;20061;-88
2022/10/14 04:50:33;;;;;;;83.32;37.60;;;11.30;99.90;;;;;;4933465;28;20038;-88
2022/10/14 04:52:58;;;;;;;80.53;37.35;;;11.30;99.90;;;;;;4933018;28;20097;-88
2022/10/14 04:55:24;;;;;;;73.05;35.25;;;11.30;99.90;;;;;;4961740;28;20512;-88
2022/10/14 04:57:50;;;;;;;89.15;36.95;;;11.30;99.90;;;;;;4952296;28;20034;-89
2022/10/14 05:00:16;;;;;;;115.82;40.33;;;11.30;99.90;;;;;;4932896;28;20118;-88
2022/10/14 05:02:41;;;;;;;76.90;35.45;;;11.40;99.90;;;;;;4945366;28;20046;-88
2022/10/14 05:05:07;;;;;;;71.38;34.90;;;11.40;99.90;;;;;;4931353;28;20125;-88
2022/10/14 05:07:33;;;;;;;65.03;34.20;;;11.30;99.90;;;;;;4977993;28;20560;-88
2022/10/14 05:10:00;;;;;;;65.47;34.03;;;11.30;99.90;;;;;;4960838;28;20047;-88
2022/10/14 05:12:26;;;;;;;65.10;33.67;;;11.30;99.90;;;;;;4941875;28;20113;-88
2022/10/14 05:14:53;;;;;;;70.60;36.60;;;11.40;99.90;;;;;;4959598;28;20097;-88
2022/10/14 05:17:19;;;;;;;68.97;35.95;;;11.30;99.90;;;;;;4955484;28;20136;-88
2022/10/14 05:19:45;;;;;;;64.57;35.40;;;11.40;99.90;;;;;;4946427;28;20042;-88
2022/10/14 05:22:11;;;;;;;72.30;38.28;;;11.40;99.90;;;;;;4930611;28;20040;-87
2022/10/14 05:24:37;;;;;;;66.35;36.60;;;11.50;99.90;;;;;;4947317;28;20042;-88
2022/10/14 05:27:02;;;;;;;71.43;38.35;;;11.50;99.90;;;;;;4948452;28;20405;-89
2022/10/14 05:29:28;;;;;;;71.18;39.00;;;11.50;99.90;;;;;;4948442;28;20054;-88
2022/10/14 05:31:54;;;;;;;69.10;38.03;;;11.40;99.90;;;;;;4948713;28;20042;-88
2022/10/14 05:34:20;;;;;;;62.13;36.17;;;11.50;99.90;;;;;;4939062;28;20034;-88
2022/10/14 05:36:45;;;;;;;52.13;31.02;;;11.50;99.90;;;;;;4946391;28;20046;-88
2022/10/14 05:39:11;;;;;;;54.60;32.92;;;11.40;99.90;;;;;;4930804;28;20035;-88
2022/10/14 05:41:37;;;;;;;53.55;33.42;;;11.40;99.90;;;;;;4964018;28;20043;-88
2022/10/14 05:44:04;;;;;;;51.45;31.27;;;11.30;99.90;;;;;;4953133;28;20124;-88
2022/10/14 05:46:30;;;;;;;49.25;29.80;;;11.20;99.90;;;;;;4962931;28;20042;-88
2022/10/14 05:48:56;;;;;;;48.33;29.67;;;11.30;99.90;;;;;;4933049;28;20030;-88
2022/10/14 05:51:22;;;;;;;53.35;31.45;;;11.30;99.90;;;;;;4949141;28;20046;-88
2022/10/14 05:53:48;;;;;;;55.92;32.72;;;11.30;99.90;;;;;;4952815;28;20052;-88
2022/10/14 05:56:14;;;;;;;48.15;29.15;;;11.20;99.90;;;;;;4953019;28;20053;-88
2022/10/14 05:58:40;;;;;;;52.70;32.08;;;11.30;99.90;;;;;;4964450;28;20085;-88
2022/10/14 06:01:08;;;;;;;42.58;27.58;;;11.40;99.90;;;;;;4943474;28;20042;-88
2022/10/14 06:03:34;;;;;;;47.53;28.67;;;11.40;99.90;;;;;;4979511;28;20592;-88
2022/10/14 06:06:00;;;;;;;46.97;28.02;;;11.40;99.90;;;;;;4955290;28;20042;-88
2022/10/14 06:08:27;;;;;;;49.78;30.42;;;11.40;99.90;;;;;;4961941;28;20050;-88
2022/10/14 06:10:53;;;;;;;53.05;31.17;;;11.30;99.90;;;;;;4954295;28;20046;-87
2022/10/14 06:13:20;;;;;;;54.08;30.50;;;11.30;99.90;;;;;;4957620;28;20050;-88
2022/10/14 06:15:46;;;;;;;49.15;28.48;;;11.40;99.90;;;;;;4944889;28;20403;-88
2022/10/14 06:18:12;;;;;;;51.55;30.45;;;11.40;99.90;;;;;;4947810;28;20116;-88
2022/10/14 06:20:38;;;;;;;46.63;27.75;;;11.40;99.90;;;;;;4945750;28;20043;-88
2022/10/14 06:23:04;;;;;;;49.15;28.05;;;11.40;99.90;;;;;;4946970;28;20067;-88
2022/10/14 06:25:30;;;;;;;45.88;26.52;;;11.30;99.90;;;;;;4947743;28;20045;-88
2022/10/14 06:28:02;;;;;;;42.83;25.65;;;11.30;99.90;;;;;;4951322;28;20138;-88
2022/10/14 06:30:28;;;;;;;44.60;26.58;;;11.30;99.90;;;;;;4960769;28;20049;-89
2022/10/14 06:32:53;;;;;;;41.70;25.23;;;11.30;99.90;;;;;;4947433;28;20050;-87
2022/10/14 06:35:19;;;;;;;43.33;25.10;;;11.30;99.90;;;;;;4950346;28;20121;-88
2022/10/14 06:37:46;;;;;;;41.90;26.10;;;11.30;99.90;;;;;;4962114;28;20490;-89
2022/10/14 06:40:11;;;;;;;48.40;28.27;;;11.30;99.90;;;;;;4979191;28;20193;-88
2022/10/14 06:42:37;;;;;;;51.60;29.00;;;11.30;99.90;;;;;;4944143;28;20117;-88
2022/10/14 06:45:05;;;;;;;52.00;29.27;;;11.30;99.90;;;;;;4958610;28;20057;-88
2022/10/14 06:47:31;;;;;;;50.85;29.30;;;11.20;99.90;;;;;;4932306;28;20053;-88
2022/10/14 06:49:57;;;;;;;43.38;24.88;;;11.30;99.90;;;;;;4971234;28;20046;-88
2022/10/14 06:52:23;;;;;;;45.40;26.88;;;11.40;99.90;;;;;;4965236;28;20420;-88
2022/10/14 06:54:48;;;;;;;45.75;26.27;;;11.50;99.90;;;;;;4984185;28;20053;-88
2022/10/14 06:57:14;;;;;;;53.25;29.92;;;11.50;99.90;;;;;;4966898;28;20072;-88
2022/10/14 06:59:40;;;;;;;47.63;28.17;;;11.40;99.90;;;;;;4962722;28;20409;-88
2022/10/14 07:02:06;;;;;;;47.53;27.88;;;11.50;99.90;;;;;;4930834;28;20128;-88
2022/10/14 07:04:31;;;;;;;46.88;28.45;;;11.50;99.90;;;;;;4971765;28;20045;-88
2022/10/14 07:06:57;;;;;;;44.80;26.75;;;11.50;99.90;;;;;;4963196;28;20042;-88
2022/10/14 07:09:23;;;;;;;48.75;29.10;;;11.60;99.90;;;;;;4930992;28;20094;-88
2022/10/14 07:11:49;;;;;;;44.28;26.92;;;11.60;99.90;;;;;;4970209;28;20038;-88
2022/10/14 07:14:15;;;;;;;47.35;28.92;;;11.60;99.90;;;;;;4938458;28;20101;-87
2022/10/14 07:16:44;;;;;;;43.90;27.10;;;11.70;99.90;;;;;;4971866;28;20120;-89
2022/10/14 07:19:10;;;;;;;52.92;30.23;;;11.70;99.90;;;;;;4955708;28;20502;-88
2022/10/14 07:21:36;;;;;;;45.42;28.23;;;11.70;99.90;;;;;;4985328;28;20030;-88
2022/10/14 07:24:02;;;;;;;44.83;27.02;;;11.70;99.90;;;;;;4951711;28;20049;-88
2022/10/14 07:26:31;;;;;;;45.65;28.92;;;11.80;99.90;;;;;;4929370;28;20034;-88
2022/10/14 07:28:57;;;;;;;47.15;28.73;;;11.80;99.90;;;;;;4952840;28;20045;-88
2022/10/14 07:31:24;;;;;;;45.70;28.98;;;11.90;99.90;;;;;;4966148;28;20038;-88
2022/10/14 07:33:50;;;;;;;50.25;31.17;;;11.90;99.90;;;;;;4950029;28;20031;-88
2022/10/14 07:36:17;;;;;;;52.95;30.33;;;11.90;99.90;;;;;;4953391;28;20042;-88
2022/10/14 07:38:44;;;;;;;52.80;31.13;;;12.00;99.90;;;;;;4968876;28;20034;-88
2022/10/14 07:41:17;;;;;;;46.78;28.48;;;12.00;99.90;;;;;;4946004;28;20053;-88
2022/10/14 07:43:54;;;;;;;45.97;28.15;;;12.00;99.90;;;;;;4981077;28;20038;-88
2022/10/14 07:46:31;;;;;;;41.20;25.52;;;12.10;99.90;;;;;;4984765;28;20081;-88
2022/10/14 07:48:59;;;;;;;45.97;27.45;;;12.10;99.90;;;;;;4959438;28;20031;-88
2022/10/14 07:51:26;;;;;;;45.35;28.20;;;12.20;99.90;;;;;;4957632;28;20046;-87
2022/10/14 07:53:53;;;;;;;44.10;25.27;;;12.20;99.90;;;;;;4975271;28;20034;-88
2022/10/14 07:56:19;;;;;;;42.85;25.38;;;12.10;99.90;;;;;;4943950;28;20053;-88
2022/10/14 07:58:45;;;;;;;45.38;27.55;;;12.20;99.90;;;;;;4962494;28;20121;-88
2022/10/14 08:01:11;;;;;;;39.45;24.77;;;12.30;99.90;;;;;;4949732;28;20026;-88
2022/10/14 08:03:37;;;;;;;39.20;24.42;;;12.30;99.90;;;;;;4942585;28;20037;-88
2022/10/14 08:06:04;;;;;;;42.17;25.38;;;12.30;99.90;;;;;;4948339;28;20121;-88
2022/10/14 08:08:30;;;;;;;44.95;28.05;;;12.30;99.90;;;;;;4953648;28;20050;-87
2022/10/14 08:11:06;;;;;;;51.97;28.77;;;12.20;99.90;;;;;;4930511;28;20501;-88
2022/10/14 08:13:32;;;;;;;47.83;28.02;;;12.20;99.90;;;;;;4969489;28;20065;-88
2022/10/14 08:15:58;;;;;;;50.25;30.83;;;12.20;99.90;;;;;;4939576;28;20047;-88
2022/10/14 08:18:25;;;;;;;50.10;28.52;;;12.20;99.90;;;;;;4937964;28;20042;-87
2022/10/14 08:20:51;;;;;;;45.95;27.67;;;12.30;99.90;;;;;;4957610;28;20038;-88
2022/10/14 08:23:17;;;;;;;49.88;28.77;;;12.30;99.90;;;;;;4960674;28;20121;-89
2022/10/14 08:25:43;;;;;;;47.35;28.92;;;12.30;99.90;;;;;;4944737;28;20463;-88
2022/10/14 08:28:09;;;;;;;49.90;30.20;;;12.40;99.90;;;;;;4945636;28;20042;-88
2022/10/14 08:30:34;;;;;;;49.75;28.67;;;12.40;99.90;;;;;;4925711;28;20414;-87
2022/10/14 08:33:00;;;;;;;49.00;28.83;;;12.40;99.90;;;;;;4947240;28;20580;-89
2022/10/14 08:35:26;;;;;;;51.08;31.75;;;12.50;99.90;;;;;;4959968;28;20101;-88
2022/10/14 08:37:57;;;;;;;58.20;33.72;;;12.50;99.90;;;;;;4948706;28;20087;-88
2022/10/14 08:40:23;;;;;;;53.42;30.63;;;12.50;99.90;;;;;;4941958;28;20129;-87
2022/10/14 08:43:04;;;;;;;52.13;28.92;;;12.60;99.90;;;;;;4965022;28;20043;-88
2022/10/14 08:45:34;;;;;;;55.45;31.65;;;12.70;99.90;;;;;;4960084;28;20043;-88
2022/10/14 08:48:07;;;;;;;60.13;32.30;;;12.70;99.90;;;;;;4972668;28;20042;-88
2022/10/14 08:51:02;;;;;;;63.20;33.28;;;12.70;99.90;;;;;;4968145;28;20300;-88
2022/10/14 08:53:54;;;;;;;54.30;31.52;;;12.70;99.90;;;;;;4960852;28;20051;-88
2022/10/14 08:56:21;;;;;;;61.70;32.75;;;12.70;99.90;;;;;;4968123;28;20053;-88
2022/10/14 08:58:53;;;;;;;63.78;32.92;;;12.70;99.90;;;;;;4950336;28;20041;-88
2022/10/14 09:01:33;;;;;;;68.80;35.83;;;12.70;99.90;;;;;;4936107;28;20042;-88
2022/10/14 09:04:03;;;;;;;74.75;35.72;;;12.70;99.90;;;;;;4973018;28;20112;-88
2022/10/14 09:06:32;;;;;;;69.63;35.50;;;12.80;99.90;;;;;;4966670;28;20042;-88
2022/10/14 09:09:18;;;;;;;68.10;35.80;;;12.80;99.90;;;;;;4984307;28;20046;-88
2022/10/14 09:11:48;;;;;;;69.43;37.70;;;12.80;99.90;;;;;;4958170;28;20121;-88
2022/10/14 09:14:29;;;;;;;67.78;34.85;;;12.80;99.90;;;;;;4968802;28;20439;-89
2022/10/14 09:17:05;;;;;;;64.68;32.38;;;12.90;99.90;;;;;;4967416;28;20126;-88
2022/10/14 09:19:34;;;;;;;65.78;34.60;;;12.90;99.90;;;;;;4968568;28;20039;-88
2022/10/14 09:22:01;;;;;;;74.15;37.13;;;12.90;99.90;;;;;;4952549;28;20035;-88
2022/10/14 09:24:36;;;;;;;62.17;32.80;;;12.90;99.90;;;;;;4953147;28;20046;-89
2022/10/14 09:27:14;;;;;;;63.55;33.85;;;12.90;99.90;;;;;;4921863;28;20043;-88
2022/10/14 09:30:00;;;;;;;65.25;34.60;;;12.90;99.90;;;;;;4960731;28;20158;-88
2022/10/14 09:32:40;;;;;;;63.55;33.35;;;13.00;99.90;;;;;;4953952;28;20089;-88
2022/10/14 09:35:29;;;;;;;67.63;35.55;;;12.90;99.90;;;;;;4936548;28;20043;-88
2022/10/14 09:37:55;;;;;;;66.80;34.22;;;13.00;99.90;;;;;;4975056;28;20066;-88
2022/10/14 09:40:34;;;;;;;69.28;36.25;;;13.00;99.90;;;;;;4961951;28;20034;-88
2022/10/14 09:43:08;;;;;;;67.80;36.70;;;13.00;99.90;;;;;;4954841;28;20039;-88
2022/10/14 09:45:57;;;;;;;68.25;34.65;;;12.90;99.90;;;;;;4976287;28;20046;-88
2022/10/14 09:48:43;;;;;;;67.18;36.40;;;13.00;99.90;;;;;;4953024;28;20038;-88
2022/10/14 09:51:22;;;;;;;65.13;35.40;;;13.20;99.90;;;;;;4959562;28;20428;-89
2022/10/14 09:53:51;;;;;;;61.72;32.47;;;13.10;99.90;;;;;;4961099;28;20041;-89
2022/10/14 09:56:27;;;;;;;68.40;35.42;;;13.10;99.90;;;;;;4956477;28;20070;-88
2022/10/14 09:58:56;;;;;;;64.13;34.67;;;13.10;99.90;;;;;;4954379;28;20043;-88
2022/10/14 10:01:28;;;;;;;67.20;35.20;;;13.10;99.90;;;;;;4955646;28;20039;-87
2022/10/14 10:03:55;;;;;;;68.45;35.75;;;13.10;99.90;;;;;;4972585;28;20541;-88
2022/10/14 10:06:26;;;;;;;61.22;33.47;;;13.10;99.90;;;;;;4944788;28;20035;-89
2022/10/14 10:08:52;;;;;;;64.03;32.55;;;13.10;99.90;;;;;;4958797;28;20039;-87
2022/10/14 10:11:27;;;;;;;67.38;34.00;;;13.10;99.90;;;;;;4965510;28;20046;-88
2022/10/14 10:13:53;;;;;;;71.75;35.40;;;13.10;99.90;;;;;;4959722;28;20051;-89
2022/10/14 10:16:30;;;;;;;73.20;36.75;;;13.10;99.90;;;;;;4970321;28;20055;-88
2022/10/14 10:18:59;;;;;;;75.45;36.25;;;13.00;99.90;;;;;;4962718;28;20038;-89
2022/10/14 10:21:28;;;;;;;72.40;36.45;;;13.10;99.90;;;;;;4973367;28;20054;-88
2022/10/14 10:23:55;;;;;;;70.15;36.25;;;13.10;99.90;;;;;;4960099;28;20037;-88
2022/10/14 10:26:31;;;;;;;63.83;34.20;;;13.10;99.90;;;;;;4964749;28;20049;-88
2022/10/14 10:29:01;;;;;;;72.43;37.13;;;13.10;99.90;;;;;;4971890;28;20038;-89
2022/10/14 10:31:46;;;;;;;87.65;37.83;;;13.10;99.90;;;;;;4954622;28;20189;-88
2022/10/14 10:34:50;;;;;;;82.22;38.00;;;13.10;99.90;;;;;;4959704;28;20097;-88
2022/10/14 10:37:16;;;;;;;69.63;35.83;;;13.10;99.90;;;;;;4958262;28;20050;-88
2022/10/14 10:39:42;;;;;;;79.90;38.10;;;13.10;99.90;;;;;;4962823;28;20042;-89
2022/10/14 10:42:16;;;;;;;87.75;38.92;;;13.10;99.90;;;;;;4956293;28;20031;-88
2022/10/14 10:45:10;;;;;;;70.25;36.28;;;13.10;99.90;;;;;;4964037;28;20577;-88
2022/10/14 10:47:44;;;;;;;58.88;32.22;;;13.10;99.90;;;;;;4970906;28;20115;-88
2022/10/14 10:50:31;;;;;;;52.30;30.25;;;13.20;99.90;;;;;;4956438;28;20049;-88
2022/10/14 10:53:28;;;;;;;55.83;30.58;;;13.20;99.90;;;;;;4954478;28;20509;-89
2022/10/14 10:56:21;;;;;;;61.50;33.58;;;13.30;99.90;;;;;;4974593;28;20049;-89
2022/10/14 10:59:08;;;;;;;53.58;29.98;;;13.20;99.90;;;;;;4958604;28;20064;-88
2022/10/14 11:01:37;;;;;;;57.10;31.58;;;13.30;99.90;;;;;;4959916;28;20042;-89
2022/10/14 11:04:29;;;;;;;53.40;30.00;;;13.30;99.90;;;;;;4960158;28;20057;-87
2022/10/14 11:13:10;;;;;;;66.28;36.72;;;13.20;99.90;;;;;;4976714;28;20079;-89
2022/10/14 11:15:48;;;;;;;66.15;34.80;;;13.30;99.90;;;;;;4954437;28;20055;-89
2022/10/14 11:18:25;;;;;;;67.93;36.92;;;13.30;99.90;;;;;;4959051;28;20050;-88
2022/10/14 11:21:28;;;;;;;71.05;38.42;;;13.30;99.90;;;;;;4960926;28;20478;-89
2022/10/14 11:23:58;;;;;;;;;;;13.40;99.90;;;;;;4980463;28;20034;-88
2022/10/14 11:26:29;;;;;;;81.00;41.63;;;13.40;99.90;;;;;;4957049;28;19922;-89
2022/10/14 11:29:14;;;;;;;79.57;42.58;;;13.40;99.90;;;;;;4971357;28;20047;-89
2022/10/14 11:32:16;;;;;;;82.13;43.20;;;13.40;99.90;;;;;;4952969;28;20043;-89
2022/10/14 11:35:09;;;;;;;83.75;44.25;;;13.50;99.90;;;;;;4958305;28;20047;-88
2022/10/14 11:37:43;;;;;;;95.28;47.92;;;13.60;99.90;;;;;;4975424;28;20038;-89
2022/10/14 11:40:27;;;;;;;90.07;46.70;;;13.60;99.90;;;;;;4958439;28;20175;-89
2022/10/14 11:43:27;;;;;;;83.03;46.33;;;13.70;99.90;;;;;;4962882;28;20042;-89
2022/10/14 11:46:06;;;;;;;77.93;44.45;;;13.70;99.90;;;;;;4978240;28;20062;-88
2022/10/14 11:48:41;;;;;;;85.25;46.80;;;13.70;99.90;;;;;;4979842;28;20059;-88
2022/10/14 11:51:14;;;;;;;85.60;46.90;;;13.80;99.90;;;;;;4963173;28;20394;-89
2022/10/14 11:53:58;;;;;;;87.07;47.10;;;13.80;99.90;;;;;;4960635;28;20401;-88
2022/10/14 11:56:40;;;;;;;90.50;48.55;;;13.90;99.90;;;;;;4963475;28;20045;-88
2022/10/14 11:59:38;;;;;;;87.75;48.28;;;13.90;99.90;;;;;;4966274;28;20039;-88
2022/10/14 12:02:32;;;;;;;93.13;48.30;;;13.90;99.90;;;;;;4975381;28;20502;-88
2022/10/14 12:05:35;;;;;;;87.45;49.22;;;14.00;99.90;;;;;;4975850;28;20136;-88
2022/10/14 12:08:20;;;;;;;83.90;48.80;;;14.10;99.90;;;;;;4960597;28;20153;-88
2022/10/14 12:11:23;;;;;;;85.20;48.13;;;14.20;99.90;;;;;;4977384;28;20144;-88
2022/10/14 12:13:53;;;;;;;89.55;49.00;;;14.20;99.90;;;;;;4962745;28;20476;-88
2022/10/14 12:16:21;;;;;;;90.65;51.13;;;14.30;99.90;;;;;;4958915;28;20093;-89
2022/10/14 12:18:51;;;;;;;87.28;50.30;;;14.30;99.90;;;;;;4961549;28;20030;-89
2022/10/14 12:21:39;;;;;;;93.82;51.65;;;14.30;99.90;;;;;;4962759;28;20035;-89
2022/10/14 12:24:39;;;;;;;86.93;49.75;;;14.30;99.90;;;;;;4964169;28;20117;-88
2022/10/14 12:27:09;;;;;;;93.90;51.42;;;14.30;99.90;;;;;;4952546;28;20047;-88
2022/10/14 12:29:39;;;;;;;76.47;45.30;;;14.30;99.90;;;;;;4950062;28;20042;-89
2022/10/14 12:32:24;;;;;;;85.65;50.33;;;14.30;99.90;;;;;;4980442;28;20084;-89
2022/10/14 12:34:52;;;;;;;76.63;45.30;;;14.30;99.90;;;;;;4965870;28;20098;-89
2022/10/14 12:37:30;;;;;;;79.80;49.47;;;14.40;99.90;;;;;;4964198;28;20089;-88
2022/10/14 12:40:04;;;;;;;82.75;49.70;;;14.40;99.90;;;;;;4963912;28;21029;-88
2022/10/14 12:42:35;;;;;;;90.75;53.75;;;14.30;99.90;;;;;;4964647;28;20121;-88
2022/10/14 12:45:12;;;;;;;90.18;53.55;;;14.30;99.90;;;;;;4975131;28;20245;-88
2022/10/14 12:47:38;;;;;;;101.15;56.10;;;14.40;99.90;;;;;;4969739;28;20086;-89
2022/10/14 12:50:27;;;;;;;95.78;53.85;;;14.40;99.90;;;;;;4972347;28;20050;-89
2022/10/14 12:52:57;;;;;;;84.38;51.35;;;14.40;99.90;;;;;;4953982;28;20043;-88
2022/10/14 12:55:26;;;;;;;79.93;51.38;;;14.50;99.90;;;;;;4969193;28;20038;-89